sensor_id;sensor_type;location;lat;lon;timestamp;P1;durP1;ratioP1;P2;durP2;ratioP2
15699;SDS011;7950;42.744;23.174;2022-12-20T00:02:17;17.57;;;10.30;;
15699;SDS011;7950;42.744;23.174;2022-12-20T00:04:47;15.13;;;8.77;;
15699;SDS011;7950;42.744;23.174;2022-12-20T00:07:16;14.60;;;8.67;;
15699;SDS011;7950;42.744;23.174;2022-12-20T00:09:45;15.97;;;9.40;;
15699;SDS011;7950;42.744;23.174;2022-12-20T00:12:13;16.63;;;10.10;;
15699;SDS011;7950;42.744;23.174;2022-12-20T00:17:48;15.23;;;9.43;;
15699;SDS011;7950;42.744;23.174;2022-12-20T00:20:19;19.33;;;10.13;;
15699;SDS011;7950;42.744;23.174;2022-12-20T00:22:47;16.33;;;9.93;;
15699;SDS011;7950;42.744;23.174;2022-12-20T00:25:16;17.13;;;8.80;;
15699;SDS011;7950;42.744;23.174;2022-12-20T00:30:39;19.80;;;9.47;;
15699;SDS011;7950;42.744;23.174;2022-12-20T00:33:07;17.27;;;9.27;;
15699;SDS011;7950;42.744;23.174;2022-12-20T00:35:41;17.63;;;9.60;;
15699;SDS011;7950;42.744;23.174;2022-12-20T00:38:10;16.10;;;10.33;;
15699;SDS011;7950;42.744;23.174;2022-12-20T00:40:38;14.43;;;8.53;;
15699;SDS011;7950;42.744;23.174;2022-12-20T00:43:07;13.37;;;7.80;;
15699;SDS011;7950;42.744;23.174;2022-12-20T00:45:35;12.77;;;7.83;;
15699;SDS011;7950;42.744;23.174;2022-12-20T00:48:04;14.70;;;7.67;;
15699;SDS011;7950;42.744;23.174;2022-12-20T00:50:33;14.77;;;8.33;;
15699;SDS011;7950;42.744;23.174;2022-12-20T00:53:03;15.37;;;8.30;;
15699;SDS011;7950;42.744;23.174;2022-12-20T00:55:39;14.57;;;7.70;;
15699;SDS011;7950;42.744;23.174;2022-12-20T00:58:08;13.23;;;7.07;;
15699;SDS011;7950;42.744;23.174;2022-12-20T01:00:37;13.63;;;8.00;;
15699;SDS011;7950;42.744;23.174;2022-12-20T01:03:06;14.80;;;7.83;;
15699;SDS011;7950;42.744;23.174;2022-12-20T01:08:36;15.17;;;7.83;;
15699;SDS011;7950;42.744;23.174;2022-12-20T01:11:05;13.87;;;7.57;;
15699;SDS011;7950;42.744;23.174;2022-12-20T01:16:38;16.10;;;8.33;;
15699;SDS011;7950;42.744;23.174;2022-12-20T01:19:09;15.00;;;8.40;;
15699;SDS011;7950;42.744;23.174;2022-12-20T01:21:39;12.10;;;8.03;;
15699;SDS011;7950;42.744;23.174;2022-12-20T01:24:12;14.83;;;8.10;;
15699;SDS011;7950;42.744;23.174;2022-12-20T01:26:40;13.83;;;8.00;;
15699;SDS011;7950;42.744;23.174;2022-12-20T01:29:09;10.27;;;7.23;;
15699;SDS011;7950;42.744;23.174;2022-12-20T01:31:39;11.87;;;7.80;;
15699;SDS011;7950;42.744;23.174;2022-12-20T01:34:09;13.80;;;7.50;;
15699;SDS011;7950;42.744;23.174;2022-12-20T01:36:38;12.33;;;7.33;;
15699;SDS011;7950;42.744;23.174;2022-12-20T01:39:09;9.87;;;6.80;;
15699;SDS011;7950;42.744;23.174;2022-12-20T01:41:42;15.83;;;7.93;;
15699;SDS011;7950;42.744;23.174;2022-12-20T01:47:32;11.47;;;7.57;;
15699;SDS011;7950;42.744;23.174;2022-12-20T01:50:04;14.33;;;8.10;;
15699;SDS011;7950;42.744;23.174;2022-12-20T01:52:35;15.47;;;8.03;;
15699;SDS011;7950;42.744;23.174;2022-12-20T01:55:09;14.10;;;8.10;;
15699;SDS011;7950;42.744;23.174;2022-12-20T01:57:41;11.50;;;7.43;;
15699;SDS011;7950;42.744;23.174;2022-12-20T02:00:13;11.47;;;7.53;;
15699;SDS011;7950;42.744;23.174;2022-12-20T02:02:43;12.10;;;7.70;;
15699;SDS011;7950;42.744;23.174;2022-12-20T02:05:14;12.03;;;6.80;;
15699;SDS011;7950;42.744;23.174;2022-12-20T02:07:44;13.77;;;8.23;;
15699;SDS011;7950;42.744;23.174;2022-12-20T02:10:17;15.50;;;7.97;;
15699;SDS011;7950;42.744;23.174;2022-12-20T02:12:47;12.23;;;8.07;;
15699;SDS011;7950;42.744;23.174;2022-12-20T02:15:23;12.37;;;7.93;;
15699;SDS011;7950;42.744;23.174;2022-12-20T02:18:02;13.90;;;7.20;;
15699;SDS011;7950;42.744;23.174;2022-12-20T02:23:52;11.63;;;7.73;;
15699;SDS011;7950;42.744;23.174;2022-12-20T02:32:56;14.27;;;8.23;;
15699;SDS011;7950;42.744;23.174;2022-12-20T02:35:28;13.50;;;7.70;;
15699;SDS011;7950;42.744;23.174;2022-12-20T02:38:23;13.40;;;7.30;;
15699;SDS011;7950;42.744;23.174;2022-12-20T02:43:51;13.50;;;7.90;;
15699;SDS011;7950;42.744;23.174;2022-12-20T02:46:41;10.43;;;7.17;;
15699;SDS011;7950;42.744;23.174;2022-12-20T02:49:11;12.43;;;7.70;;
15699;SDS011;7950;42.744;23.174;2022-12-20T02:51:44;10.57;;;7.33;;
15699;SDS011;7950;42.744;23.174;2022-12-20T02:54:16;13.73;;;7.97;;
15699;SDS011;7950;42.744;23.174;2022-12-20T02:56:46;12.87;;;7.83;;
15699;SDS011;7950;42.744;23.174;2022-12-20T02:59:20;11.33;;;7.30;;
15699;SDS011;7950;42.744;23.174;2022-12-20T03:01:53;12.73;;;7.67;;
15699;SDS011;7950;42.744;23.174;2022-12-20T03:04:24;14.47;;;9.13;;
15699;SDS011;7950;42.744;23.174;2022-12-20T03:06:56;12.87;;;7.97;;
15699;SDS011;7950;42.744;23.174;2022-12-20T03:09:26;11.80;;;7.63;;
15699;SDS011;7950;42.744;23.174;2022-12-20T03:11:54;16.67;;;8.70;;
15699;SDS011;7950;42.744;23.174;2022-12-20T03:14:23;12.87;;;8.10;;
15699;SDS011;7950;42.744;23.174;2022-12-20T03:16:53;12.10;;;8.03;;
15699;SDS011;7950;42.744;23.174;2022-12-20T03:25:04;17.30;;;8.60;;
15699;SDS011;7950;42.744;23.174;2022-12-20T03:27:33;14.80;;;7.97;;
15699;SDS011;7950;42.744;23.174;2022-12-20T03:30:02;12.83;;;7.70;;
15699;SDS011;7950;42.744;23.174;2022-12-20T03:32:32;11.77;;;7.13;;
15699;SDS011;7950;42.744;23.174;2022-12-20T03:35:01;12.30;;;7.40;;
15699;SDS011;7950;42.744;23.174;2022-12-20T03:37:29;10.73;;;6.53;;
15699;SDS011;7950;42.744;23.174;2022-12-20T03:39:58;11.57;;;7.23;;
15699;SDS011;7950;42.744;23.174;2022-12-20T03:42:26;10.33;;;6.63;;
15699;SDS011;7950;42.744;23.174;2022-12-20T03:44:55;11.30;;;7.33;;
15699;SDS011;7950;42.744;23.174;2022-12-20T03:47:23;11.97;;;7.10;;
15699;SDS011;7950;42.744;23.174;2022-12-20T03:49:53;11.00;;;6.67;;
15699;SDS011;7950;42.744;23.174;2022-12-20T03:52:25;10.93;;;6.23;;
15699;SDS011;7950;42.744;23.174;2022-12-20T03:54:54;10.97;;;7.20;;
15699;SDS011;7950;42.744;23.174;2022-12-20T03:57:22;11.33;;;6.73;;
15699;SDS011;7950;42.744;23.174;2022-12-20T03:59:51;12.87;;;7.57;;
15699;SDS011;7950;42.744;23.174;2022-12-20T04:02:19;13.10;;;7.70;;
15699;SDS011;7950;42.744;23.174;2022-12-20T04:04:48;10.90;;;7.37;;
15699;SDS011;7950;42.744;23.174;2022-12-20T04:07:21;11.67;;;7.50;;
15699;SDS011;7950;42.744;23.174;2022-12-20T04:09:50;12.47;;;7.80;;
15699;SDS011;7950;42.744;23.174;2022-12-20T04:12:18;12.00;;;7.67;;
15699;SDS011;7950;42.744;23.174;2022-12-20T04:14:47;13.67;;;8.77;;
15699;SDS011;7950;42.744;23.174;2022-12-20T04:17:16;13.90;;;8.47;;
15699;SDS011;7950;42.744;23.174;2022-12-20T04:19:45;18.27;;;10.67;;
15699;SDS011;7950;42.744;23.174;2022-12-20T04:22:14;14.63;;;8.53;;
15699;SDS011;7950;42.744;23.174;2022-12-20T04:24:44;14.43;;;8.60;;
15699;SDS011;7950;42.744;23.174;2022-12-20T04:27:13;15.93;;;9.57;;
15699;SDS011;7950;42.744;23.174;2022-12-20T04:29:41;15.80;;;9.03;;
15699;SDS011;7950;42.744;23.174;2022-12-20T04:32:10;13.53;;;7.67;;
15699;SDS011;7950;42.744;23.174;2022-12-20T04:34:38;16.07;;;10.60;;
15699;SDS011;7950;42.744;23.174;2022-12-20T04:37:06;16.90;;;9.60;;
15699;SDS011;7950;42.744;23.174;2022-12-20T04:39:35;15.27;;;9.27;;
15699;SDS011;7950;42.744;23.174;2022-12-20T04:42:05;13.57;;;8.77;;
15699;SDS011;7950;42.744;23.174;2022-12-20T04:44:34;15.37;;;9.53;;
15699;SDS011;7950;42.744;23.174;2022-12-20T04:47:03;14.70;;;9.60;;
15699;SDS011;7950;42.744;23.174;2022-12-20T04:49:31;16.20;;;9.67;;
15699;SDS011;7950;42.744;23.174;2022-12-20T04:52:00;15.93;;;8.70;;
15699;SDS011;7950;42.744;23.174;2022-12-20T04:54:42;15.27;;;9.20;;
15699;SDS011;7950;42.744;23.174;2022-12-20T04:57:13;17.63;;;9.57;;
15699;SDS011;7950;42.744;23.174;2022-12-20T04:59:42;16.83;;;9.77;;
15699;SDS011;7950;42.744;23.174;2022-12-20T05:05:04;17.40;;;9.83;;
15699;SDS011;7950;42.744;23.174;2022-12-20T05:07:33;16.50;;;10.20;;
15699;SDS011;7950;42.744;23.174;2022-12-20T05:10:02;14.53;;;9.30;;
15699;SDS011;7950;42.744;23.174;2022-12-20T05:12:32;13.03;;;8.70;;
15699;SDS011;7950;42.744;23.174;2022-12-20T05:15:00;16.97;;;9.30;;
15699;SDS011;7950;42.744;23.174;2022-12-20T05:17:29;13.33;;;9.70;;
15699;SDS011;7950;42.744;23.174;2022-12-20T05:19:57;14.43;;;9.17;;
15699;SDS011;7950;42.744;23.174;2022-12-20T05:22:26;13.80;;;9.07;;
15699;SDS011;7950;42.744;23.174;2022-12-20T05:25:20;14.47;;;9.10;;
15699;SDS011;7950;42.744;23.174;2022-12-20T05:28:06;21.50;;;14.17;;
15699;SDS011;7950;42.744;23.174;2022-12-20T05:30:35;17.60;;;11.23;;
15699;SDS011;7950;42.744;23.174;2022-12-20T05:35:59;26.60;;;16.03;;
15699;SDS011;7950;42.744;23.174;2022-12-20T05:38:28;24.27;;;14.20;;
15699;SDS011;7950;42.744;23.174;2022-12-20T05:40:56;29.63;;;18.80;;
15699;SDS011;7950;42.744;23.174;2022-12-20T05:43:26;54.63;;;39.30;;
15699;SDS011;7950;42.744;23.174;2022-12-20T05:45:55;18.83;;;15.17;;
15699;SDS011;7950;42.744;23.174;2022-12-20T05:48:24;17.23;;;10.53;;
15699;SDS011;7950;42.744;23.174;2022-12-20T05:50:52;16.00;;;10.27;;
15699;SDS011;7950;42.744;23.174;2022-12-20T05:53:20;16.90;;;10.17;;
15699;SDS011;7950;42.744;23.174;2022-12-20T05:55:50;20.93;;;13.03;;
15699;SDS011;7950;42.744;23.174;2022-12-20T05:58:19;21.27;;;13.10;;
15699;SDS011;7950;42.744;23.174;2022-12-20T06:00:49;18.40;;;11.97;;
15699;SDS011;7950;42.744;23.174;2022-12-20T06:03:17;22.60;;;12.70;;
15699;SDS011;7950;42.744;23.174;2022-12-20T06:05:46;22.47;;;13.50;;
15699;SDS011;7950;42.744;23.174;2022-12-20T06:08:15;38.00;;;27.07;;
15699;SDS011;7950;42.744;23.174;2022-12-20T06:10:43;20.53;;;13.03;;
15699;SDS011;7950;42.744;23.174;2022-12-20T06:13:12;19.50;;;12.30;;
15699;SDS011;7950;42.744;23.174;2022-12-20T06:15:40;17.47;;;12.40;;
15699;SDS011;7950;42.744;23.174;2022-12-20T06:18:10;20.80;;;12.97;;
15699;SDS011;7950;42.744;23.174;2022-12-20T06:20:39;19.30;;;13.57;;
15699;SDS011;7950;42.744;23.174;2022-12-20T06:23:07;21.80;;;15.13;;
15699;SDS011;7950;42.744;23.174;2022-12-20T06:25:36;20.70;;;14.97;;
15699;SDS011;7950;42.744;23.174;2022-12-20T06:28:05;25.83;;;17.20;;
15699;SDS011;7950;42.744;23.174;2022-12-20T06:30:34;22.20;;;13.93;;
15699;SDS011;7950;42.744;23.174;2022-12-20T06:33:02;20.97;;;14.20;;
15699;SDS011;7950;42.744;23.174;2022-12-20T06:35:32;21.47;;;13.63;;
15699;SDS011;7950;42.744;23.174;2022-12-20T06:38:01;20.47;;;14.60;;
15699;SDS011;7950;42.744;23.174;2022-12-20T06:40:30;21.17;;;15.47;;
15699;SDS011;7950;42.744;23.174;2022-12-20T06:42:58;26.00;;;18.67;;
15699;SDS011;7950;42.744;23.174;2022-12-20T06:45:27;23.43;;;16.47;;
15699;SDS011;7950;42.744;23.174;2022-12-20T06:48:03;24.70;;;17.23;;
15699;SDS011;7950;42.744;23.174;2022-12-20T06:50:33;24.17;;;17.33;;
15699;SDS011;7950;42.744;23.174;2022-12-20T06:53:01;21.17;;;13.60;;
15699;SDS011;7950;42.744;23.174;2022-12-20T06:55:30;27.83;;;18.67;;
15699;SDS011;7950;42.744;23.174;2022-12-20T06:57:58;40.57;;;25.10;;
15699;SDS011;7950;42.744;23.174;2022-12-20T07:00:27;31.80;;;20.07;;
15699;SDS011;7950;42.744;23.174;2022-12-20T07:02:55;16.70;;;13.03;;
15699;SDS011;7950;42.744;23.174;2022-12-20T07:05:24;21.03;;;14.63;;
15699;SDS011;7950;42.744;23.174;2022-12-20T07:07:54;28.30;;;18.50;;
15699;SDS011;7950;42.744;23.174;2022-12-20T07:10:22;34.20;;;20.73;;
15699;SDS011;7950;42.744;23.174;2022-12-20T07:13:02;31.27;;;18.53;;
15699;SDS011;7950;42.744;23.174;2022-12-20T07:15:31;26.87;;;18.90;;
15699;SDS011;7950;42.744;23.174;2022-12-20T07:18:00;29.97;;;20.60;;
15699;SDS011;7950;42.744;23.174;2022-12-20T07:20:29;29.30;;;18.47;;
15699;SDS011;7950;42.744;23.174;2022-12-20T07:22:59;36.57;;;19.93;;
15699;SDS011;7950;42.744;23.174;2022-12-20T07:25:28;32.17;;;20.27;;
15699;SDS011;7950;42.744;23.174;2022-12-20T07:27:56;30.80;;;20.50;;
15699;SDS011;7950;42.744;23.174;2022-12-20T07:30:25;27.97;;;18.13;;
15699;SDS011;7950;42.744;23.174;2022-12-20T07:32:59;26.27;;;15.90;;
15699;SDS011;7950;42.744;23.174;2022-12-20T07:35:28;33.33;;;17.43;;
15699;SDS011;7950;42.744;23.174;2022-12-20T07:37:56;26.33;;;17.27;;
15699;SDS011;7950;42.744;23.174;2022-12-20T07:40:26;24.40;;;15.80;;
15699;SDS011;7950;42.744;23.174;2022-12-20T07:45:52;33.00;;;17.63;;
15699;SDS011;7950;42.744;23.174;2022-12-20T07:48:23;27.20;;;16.90;;
15699;SDS011;7950;42.744;23.174;2022-12-20T07:50:52;25.03;;;17.13;;
15699;SDS011;7950;42.744;23.174;2022-12-20T07:53:25;24.43;;;16.30;;
15699;SDS011;7950;42.744;23.174;2022-12-20T07:55:57;24.20;;;15.27;;
15699;SDS011;7950;42.744;23.174;2022-12-20T07:58:28;22.67;;;15.27;;
15699;SDS011;7950;42.744;23.174;2022-12-20T08:00:57;22.30;;;13.50;;
15699;SDS011;7950;42.744;23.174;2022-12-20T08:06:23;24.90;;;13.33;;
15699;SDS011;7950;42.744;23.174;2022-12-20T08:08:52;22.87;;;14.37;;
15699;SDS011;7950;42.744;23.174;2022-12-20T08:11:25;20.10;;;12.80;;
15699;SDS011;7950;42.744;23.174;2022-12-20T08:16:49;20.37;;;13.63;;
15699;SDS011;7950;42.744;23.174;2022-12-20T08:22:13;20.87;;;13.60;;
15699;SDS011;7950;42.744;23.174;2022-12-20T08:24:42;22.97;;;13.00;;
15699;SDS011;7950;42.744;23.174;2022-12-20T08:27:12;16.60;;;10.33;;
15699;SDS011;7950;42.744;23.174;2022-12-20T08:29:40;19.57;;;12.47;;
15699;SDS011;7950;42.744;23.174;2022-12-20T08:32:09;17.67;;;11.20;;
15699;SDS011;7950;42.744;23.174;2022-12-20T08:34:39;17.53;;;11.70;;
15699;SDS011;7950;42.744;23.174;2022-12-20T08:37:07;18.13;;;10.57;;
15699;SDS011;7950;42.744;23.174;2022-12-20T08:39:47;18.23;;;10.73;;
15699;SDS011;7950;42.744;23.174;2022-12-20T08:42:17;15.17;;;10.20;;
15699;SDS011;7950;42.744;23.174;2022-12-20T08:44:45;16.83;;;10.67;;
15699;SDS011;7950;42.744;23.174;2022-12-20T08:47:14;17.27;;;10.90;;
15699;SDS011;7950;42.744;23.174;2022-12-20T08:49:42;20.57;;;13.87;;
15699;SDS011;7950;42.744;23.174;2022-12-20T08:52:13;19.47;;;13.07;;
15699;SDS011;7950;42.744;23.174;2022-12-20T08:54:42;15.33;;;11.03;;
15699;SDS011;7950;42.744;23.174;2022-12-20T08:57:11;17.20;;;10.77;;
15699;SDS011;7950;42.744;23.174;2022-12-20T08:59:41;19.30;;;12.63;;
15699;SDS011;7950;42.744;23.174;2022-12-20T09:02:09;17.30;;;12.50;;
15699;SDS011;7950;42.744;23.174;2022-12-20T09:04:38;20.13;;;15.50;;
15699;SDS011;7950;42.744;23.174;2022-12-20T09:07:06;19.13;;;12.80;;
15699;SDS011;7950;42.744;23.174;2022-12-20T09:09:42;17.13;;;12.07;;
15699;SDS011;7950;42.744;23.174;2022-12-20T09:12:10;17.63;;;13.07;;
15699;SDS011;7950;42.744;23.174;2022-12-20T09:14:40;18.93;;;12.63;;
15699;SDS011;7950;42.744;23.174;2022-12-20T09:17:09;18.23;;;12.87;;
15699;SDS011;7950;42.744;23.174;2022-12-20T09:19:37;16.17;;;12.33;;
15699;SDS011;7950;42.744;23.174;2022-12-20T09:22:06;19.43;;;12.50;;
15699;SDS011;7950;42.744;23.174;2022-12-20T09:24:36;20.20;;;12.67;;
15699;SDS011;7950;42.744;23.174;2022-12-20T09:27:04;22.30;;;12.57;;
15699;SDS011;7950;42.744;23.174;2022-12-20T09:29:33;17.60;;;12.07;;
15699;SDS011;7950;42.744;23.174;2022-12-20T09:32:03;22.00;;;14.63;;
15699;SDS011;7950;42.744;23.174;2022-12-20T09:34:32;18.40;;;12.43;;
15699;SDS011;7950;42.744;23.174;2022-12-20T09:37:00;17.43;;;12.40;;
15699;SDS011;7950;42.744;23.174;2022-12-20T09:39:29;21.97;;;15.53;;
15699;SDS011;7950;42.744;23.174;2022-12-20T09:41:57;21.30;;;13.83;;
15699;SDS011;7950;42.744;23.174;2022-12-20T09:44:26;20.90;;;13.80;;
15699;SDS011;7950;42.744;23.174;2022-12-20T09:46:57;26.47;;;16.57;;
15699;SDS011;7950;42.744;23.174;2022-12-20T09:49:38;17.57;;;11.80;;
15699;SDS011;7950;42.744;23.174;2022-12-20T09:52:24;17.10;;;12.40;;
15699;SDS011;7950;42.744;23.174;2022-12-20T09:55:05;17.90;;;12.13;;
15699;SDS011;7950;42.744;23.174;2022-12-20T10:01:03;18.77;;;11.97;;
15699;SDS011;7950;42.744;23.174;2022-12-20T10:03:52;24.17;;;13.87;;
15699;SDS011;7950;42.744;23.174;2022-12-20T10:06:27;20.67;;;12.80;;
15699;SDS011;7950;42.744;23.174;2022-12-20T10:12:14;17.53;;;11.83;;
15699;SDS011;7950;42.744;23.174;2022-12-20T10:14:54;18.07;;;12.03;;
15699;SDS011;7950;42.744;23.174;2022-12-20T10:17:45;18.10;;;11.33;;
15699;SDS011;7950;42.744;23.174;2022-12-20T10:20:27;14.67;;;10.43;;
15699;SDS011;7950;42.744;23.174;2022-12-20T10:23:08;16.53;;;10.10;;
15699;SDS011;7950;42.744;23.174;2022-12-20T10:25:43;17.90;;;11.13;;
15699;SDS011;7950;42.744;23.174;2022-12-20T10:28:14;17.73;;;11.00;;
15699;SDS011;7950;42.744;23.174;2022-12-20T10:30:43;16.77;;;11.10;;
15699;SDS011;7950;42.744;23.174;2022-12-20T10:33:17;16.70;;;11.20;;
15699;SDS011;7950;42.744;23.174;2022-12-20T10:35:54;17.37;;;9.97;;
15699;SDS011;7950;42.744;23.174;2022-12-20T10:38:24;17.10;;;10.70;;
15699;SDS011;7950;42.744;23.174;2022-12-20T10:41:13;17.93;;;11.80;;
15699;SDS011;7950;42.744;23.174;2022-12-20T10:43:49;17.13;;;10.70;;
15699;SDS011;7950;42.744;23.174;2022-12-20T10:46:22;18.67;;;11.67;;
15699;SDS011;7950;42.744;23.174;2022-12-20T10:49:05;15.67;;;10.30;;
15699;SDS011;7950;42.744;23.174;2022-12-20T10:52:39;16.93;;;10.50;;
15699;SDS011;7950;42.744;23.174;2022-12-20T10:58:12;18.90;;;11.40;;
15699;SDS011;7950;42.744;23.174;2022-12-20T11:00:43;18.87;;;10.57;;
15699;SDS011;7950;42.744;23.174;2022-12-20T11:03:14;21.17;;;10.63;;
15699;SDS011;7950;42.744;23.174;2022-12-20T11:05:52;15.60;;;10.33;;
15699;SDS011;7950;42.744;23.174;2022-12-20T11:08:38;15.30;;;10.40;;
15699;SDS011;7950;42.744;23.174;2022-12-20T11:11:21;17.63;;;11.20;;
15699;SDS011;7950;42.744;23.174;2022-12-20T11:14:12;17.83;;;11.70;;
15699;SDS011;7950;42.744;23.174;2022-12-20T11:16:42;14.10;;;10.00;;
15699;SDS011;7950;42.744;23.174;2022-12-20T11:19:20;18.33;;;11.70;;
15699;SDS011;7950;42.744;23.174;2022-12-20T11:22:04;18.70;;;11.00;;
15699;SDS011;7950;42.744;23.174;2022-12-20T11:24:48;19.20;;;12.07;;
15699;SDS011;7950;42.744;23.174;2022-12-20T11:27:31;19.57;;;11.00;;
15699;SDS011;7950;42.744;23.174;2022-12-20T11:30:07;18.23;;;11.70;;
15699;SDS011;7950;42.744;23.174;2022-12-20T11:35:50;14.23;;;10.37;;
15699;SDS011;7950;42.744;23.174;2022-12-20T11:38:26;16.17;;;9.90;;
15699;SDS011;7950;42.744;23.174;2022-12-20T11:41:23;16.57;;;10.03;;
15699;SDS011;7950;42.744;23.174;2022-12-20T11:44:01;17.07;;;11.13;;
15699;SDS011;7950;42.744;23.174;2022-12-20T11:47:00;23.93;;;14.33;;
15699;SDS011;7950;42.744;23.174;2022-12-20T11:49:52;27.73;;;16.93;;
15699;SDS011;7950;42.744;23.174;2022-12-20T11:52:38;16.50;;;11.00;;
15699;SDS011;7950;42.744;23.174;2022-12-20T11:55:14;16.57;;;10.77;;
15699;SDS011;7950;42.744;23.174;2022-12-20T11:57:49;16.13;;;10.60;;
15699;SDS011;7950;42.744;23.174;2022-12-20T12:00:48;17.63;;;10.30;;
15699;SDS011;7950;42.744;23.174;2022-12-20T12:03:22;15.40;;;9.23;;
15699;SDS011;7950;42.744;23.174;2022-12-20T12:05:56;15.90;;;10.07;;
15699;SDS011;7950;42.744;23.174;2022-12-20T12:08:33;18.27;;;10.67;;
15699;SDS011;7950;42.744;23.174;2022-12-20T12:11:23;16.77;;;10.27;;
15699;SDS011;7950;42.744;23.174;2022-12-20T12:14:15;16.17;;;9.57;;
15699;SDS011;7950;42.744;23.174;2022-12-20T12:16:54;17.27;;;11.20;;
15699;SDS011;7950;42.744;23.174;2022-12-20T12:19:27;18.60;;;11.67;;
15699;SDS011;7950;42.744;23.174;2022-12-20T12:22:00;19.90;;;11.20;;
15699;SDS011;7950;42.744;23.174;2022-12-20T12:24:33;14.67;;;9.73;;
15699;SDS011;7950;42.744;23.174;2022-12-20T12:27:06;17.63;;;10.97;;
15699;SDS011;7950;42.744;23.174;2022-12-20T12:29:42;16.30;;;10.63;;
15699;SDS011;7950;42.744;23.174;2022-12-20T12:32:15;16.93;;;11.27;;
15699;SDS011;7950;42.744;23.174;2022-12-20T12:34:50;18.90;;;13.13;;
15699;SDS011;7950;42.744;23.174;2022-12-20T12:37:45;16.97;;;10.07;;
15699;SDS011;7950;42.744;23.174;2022-12-20T12:46:13;16.17;;;10.47;;
15699;SDS011;7950;42.744;23.174;2022-12-20T12:48:47;17.90;;;11.90;;
15699;SDS011;7950;42.744;23.174;2022-12-20T12:51:22;19.47;;;11.63;;
15699;SDS011;7950;42.744;23.174;2022-12-20T12:54:01;19.50;;;12.67;;
15699;SDS011;7950;42.744;23.174;2022-12-20T12:56:41;18.80;;;11.27;;
15699;SDS011;7950;42.744;23.174;2022-12-20T13:02:32;19.50;;;11.27;;
15699;SDS011;7950;42.744;23.174;2022-12-20T13:08:01;30.60;;;16.80;;
15699;SDS011;7950;42.744;23.174;2022-12-20T13:13:41;20.43;;;12.80;;
15699;SDS011;7950;42.744;23.174;2022-12-20T13:16:12;15.53;;;9.70;;
15699;SDS011;7950;42.744;23.174;2022-12-20T13:19:16;19.13;;;11.83;;
15699;SDS011;7950;42.744;23.174;2022-12-20T13:21:59;14.87;;;9.20;;
15699;SDS011;7950;42.744;23.174;2022-12-20T13:24:54;14.57;;;9.53;;
15699;SDS011;7950;42.744;23.174;2022-12-20T13:27:25;13.50;;;8.30;;
15699;SDS011;7950;42.744;23.174;2022-12-20T13:32:58;14.27;;;8.87;;
15699;SDS011;7950;42.744;23.174;2022-12-20T13:36:00;17.00;;;9.80;;
15699;SDS011;7950;42.744;23.174;2022-12-20T13:38:47;13.33;;;8.90;;
15699;SDS011;7950;42.744;23.174;2022-12-20T13:41:29;14.23;;;8.57;;
15699;SDS011;7950;42.744;23.174;2022-12-20T13:46:57;10.77;;;7.60;;
15699;SDS011;7950;42.744;23.174;2022-12-20T13:49:33;12.27;;;8.73;;
15699;SDS011;7950;42.744;23.174;2022-12-20T13:52:06;22.37;;;13.73;;
15699;SDS011;7950;42.744;23.174;2022-12-20T13:54:44;22.57;;;11.97;;
15699;SDS011;7950;42.744;23.174;2022-12-20T14:00:13;11.43;;;8.03;;
15699;SDS011;7950;42.744;23.174;2022-12-20T14:02:44;22.30;;;15.30;;
15699;SDS011;7950;42.744;23.174;2022-12-20T14:05:15;23.73;;;19.20;;
15699;SDS011;7950;42.744;23.174;2022-12-20T14:07:46;22.80;;;16.63;;
15699;SDS011;7950;42.744;23.174;2022-12-20T14:10:38;25.73;;;18.47;;
15699;SDS011;7950;42.744;23.174;2022-12-20T14:13:16;19.53;;;13.67;;
15699;SDS011;7950;42.744;23.174;2022-12-20T14:15:48;16.63;;;11.77;;
15699;SDS011;7950;42.744;23.174;2022-12-20T14:18:18;12.97;;;8.90;;
15699;SDS011;7950;42.744;23.174;2022-12-20T14:20:48;13.10;;;7.70;;
15699;SDS011;7950;42.744;23.174;2022-12-20T14:23:21;13.93;;;8.47;;
15699;SDS011;7950;42.744;23.174;2022-12-20T14:25:53;16.20;;;12.77;;
15699;SDS011;7950;42.744;23.174;2022-12-20T14:28:27;23.57;;;18.77;;
15699;SDS011;7950;42.744;23.174;2022-12-20T14:31:06;29.37;;;25.37;;
15699;SDS011;7950;42.744;23.174;2022-12-20T14:33:49;21.13;;;17.60;;
15699;SDS011;7950;42.744;23.174;2022-12-20T14:36:19;22.97;;;19.23;;
15699;SDS011;7950;42.744;23.174;2022-12-20T14:38:48;19.50;;;15.37;;
15699;SDS011;7950;42.744;23.174;2022-12-20T14:41:35;24.10;;;15.77;;
15699;SDS011;7950;42.744;23.174;2022-12-20T14:44:13;15.97;;;10.30;;
15699;SDS011;7950;42.744;23.174;2022-12-20T14:46:47;16.27;;;9.70;;
15699;SDS011;7950;42.744;23.174;2022-12-20T14:49:20;13.57;;;8.30;;
15699;SDS011;7950;42.744;23.174;2022-12-20T14:51:51;14.90;;;8.43;;
15699;SDS011;7950;42.744;23.174;2022-12-20T14:54:32;25.67;;;14.00;;
15699;SDS011;7950;42.744;23.174;2022-12-20T14:57:24;19.07;;;12.10;;
15699;SDS011;7950;42.744;23.174;2022-12-20T15:02:58;20.87;;;12.77;;
15699;SDS011;7950;42.744;23.174;2022-12-20T15:05:48;30.77;;;17.10;;
15699;SDS011;7950;42.744;23.174;2022-12-20T15:08:19;22.83;;;14.17;;
15699;SDS011;7950;42.744;23.174;2022-12-20T15:10:51;29.90;;;15.63;;
15699;SDS011;7950;42.744;23.174;2022-12-20T15:13:27;25.27;;;14.53;;
15699;SDS011;7950;42.744;23.174;2022-12-20T15:15:59;26.80;;;14.20;;
15699;SDS011;7950;42.744;23.174;2022-12-20T15:18:33;22.63;;;15.23;;
15699;SDS011;7950;42.744;23.174;2022-12-20T15:21:03;25.43;;;15.63;;
15699;SDS011;7950;42.744;23.174;2022-12-20T15:23:33;20.27;;;14.03;;
15699;SDS011;7950;42.744;23.174;2022-12-20T15:26:02;17.30;;;11.07;;
15699;SDS011;7950;42.744;23.174;2022-12-20T15:28:33;17.17;;;10.43;;
15699;SDS011;7950;42.744;23.174;2022-12-20T15:31:02;16.73;;;11.67;;
15699;SDS011;7950;42.744;23.174;2022-12-20T15:33:31;18.97;;;11.57;;
15699;SDS011;7950;42.744;23.174;2022-12-20T15:36:02;17.43;;;11.17;;
15699;SDS011;7950;42.744;23.174;2022-12-20T15:38:30;19.03;;;13.13;;
15699;SDS011;7950;42.744;23.174;2022-12-20T15:41:20;16.87;;;11.20;;
15699;SDS011;7950;42.744;23.174;2022-12-20T15:43:52;18.53;;;11.80;;
15699;SDS011;7950;42.744;23.174;2022-12-20T15:46:23;18.03;;;12.43;;
15699;SDS011;7950;42.744;23.174;2022-12-20T15:48:52;22.53;;;14.17;;
15699;SDS011;7950;42.744;23.174;2022-12-20T15:51:23;17.87;;;12.10;;
15699;SDS011;7950;42.744;23.174;2022-12-20T15:53:55;21.03;;;12.87;;
15699;SDS011;7950;42.744;23.174;2022-12-20T15:56:25;21.23;;;13.33;;
15699;SDS011;7950;42.744;23.174;2022-12-20T15:58:57;19.90;;;12.83;;
15699;SDS011;7950;42.744;23.174;2022-12-20T16:01:26;22.10;;;13.57;;
15699;SDS011;7950;42.744;23.174;2022-12-20T16:04:06;18.17;;;12.70;;
15699;SDS011;7950;42.744;23.174;2022-12-20T16:06:39;20.63;;;13.97;;
15699;SDS011;7950;42.744;23.174;2022-12-20T16:09:09;24.43;;;14.63;;
15699;SDS011;7950;42.744;23.174;2022-12-20T16:11:38;33.67;;;18.50;;
15699;SDS011;7950;42.744;23.174;2022-12-20T16:14:09;21.13;;;14.30;;
15699;SDS011;7950;42.744;23.174;2022-12-20T16:16:42;24.30;;;14.00;;
15699;SDS011;7950;42.744;23.174;2022-12-20T16:19:13;24.00;;;14.63;;
15699;SDS011;7950;42.744;23.174;2022-12-20T16:21:42;19.13;;;12.07;;
15699;SDS011;7950;42.744;23.174;2022-12-20T16:24:14;19.40;;;12.77;;
15699;SDS011;7950;42.744;23.174;2022-12-20T16:32:35;23.57;;;16.43;;
15699;SDS011;7950;42.744;23.174;2022-12-20T16:35:03;22.37;;;14.73;;
15699;SDS011;7950;42.744;23.174;2022-12-20T16:37:33;21.40;;;15.63;;